Time;durP1;ratioP1;P1;durP2;ratioP2;P2;SDS_P1;SDS_P2;PMS_P1;PMS_P2;Temp;Humidity;BMP_temperature;BMP_pressure;BME280_temperature;BME280_humidity;BME280_pressure;Samples;Min_cycle;Max_cycle;Signal;HPM_P1;HPM_P2
2024/04/06 00:02:25;;;;;;;4.18;2.13;;;;;;;;;;4922232;29;20264;-75
2024/04/06 00:05:12;;;;;;;6.53;2.70;;;;;;;;;;4937079;28;20024;-75
2024/04/06 00:07:57;;;;;;;4.20;1.70;;;;;;;;;;4924830;29;20063;-75
2024/04/06 00:10:42;;;;;;;6.03;2.42;;;;;;;;;;4994730;28;20023;-75
2024/04/06 00:13:27;;;;;;;6.05;2.08;;;;;;;;;;4926564;29;20023;-75
2024/04/06 00:16:13;;;;;;;2.95;1.88;;;;;;;;;;4931828;29;20087;-74
2024/04/06 00:18:58;;;;;;;3.45;2.00;;;;;;;;;;4925954;29;20035;-74
2024/04/06 00:21:44;;;;;;;5.47;2.33;;;;;;;;;;4926400;28;20082;-74
2024/04/06 00:24:29;;;;;;;2.92;1.45;;;;;;;;;;4924018;29;20028;-74
2024/04/06 00:27:15;;;;;;;2.22;1.52;;;;;;;;;;4925099;29;20550;-75
2024/04/06 00:30:00;;;;;;;6.88;2.00;;;;;;;;;;4926503;29;20031;-76
2024/04/06 00:32:46;;;;;;;4.15;1.67;;;;;;;;;;4923475;29;20028;-76
2024/04/06 00:35:31;;;;;;;5.43;1.90;;;;;;;;;;4925077;28;20639;-76
2024/04/06 00:38:16;;;;;;;2.50;1.52;;;;;;;;;;4925958;29;20059;-76
2024/04/06 00:41:01;;;;;;;5.53;1.67;;;;;;;;;;4925744;29;20044;-76
2024/04/06 00:43:47;;;;;;;6.07;2.58;;;;;;;;;;4925199;28;20501;-75
2024/04/06 00:46:32;;;;;;;4.60;1.83;;;;;;;;;;4925472;29;20565;-76
2024/04/06 00:49:17;;;;;;;5.80;2.17;;;;;;;;;;4926966;29;20035;-74
2024/04/06 00:52:02;;;;;;;7.78;1.98;;;;;;;;;;4925144;29;20031;-75
2024/04/06 00:54:48;;;;;;;5.15;1.80;;;;;;;;;;4936526;29;20020;-74
2024/04/06 00:57:33;;;;;;;2.33;1.77;;;;;;;;;;4909988;29;20019;-75
2024/04/06 01:00:18;;;;;;;5.35;2.00;;;;;;;;;;4928412;29;20038;-76
2024/04/06 01:03:04;;;;;;;5.47;1.70;;;;;;;;;;4924803;29;20032;-76
2024/04/06 01:05:49;;;;;;;3.70;1.77;;;;;;;;;;4922648;28;20035;-75
2024/04/06 01:08:34;;;;;;;3.85;1.60;;;;;;;;;;4921051;29;20482;-75
2024/04/06 01:11:19;;;;;;;3.70;2.03;;;;;;;;;;4922470;29;20032;-75
2024/04/06 01:14:05;;;;;;;7.07;2.90;;;;;;;;;;4923342;29;20032;-75
2024/04/06 01:16:50;;;;;;;3.13;2.22;;;;;;;;;;4930732;29;20048;-76
2024/04/06 01:19:35;;;;;;;7.80;2.15;;;;;;;;;;4951395;28;20487;-75
2024/04/06 01:22:20;;;;;;;3.78;2.20;;;;;;;;;;4916260;29;20395;-75
2024/04/06 01:25:06;;;;;;;5.70;2.10;;;;;;;;;;4923453;29;20039;-75
2024/04/06 01:27:51;;;;;;;5.65;1.77;;;;;;;;;;4917904;28;20609;-76
2024/04/06 01:30:37;;;;;;;4.15;1.98;;;;;;;;;;4922524;29;20113;-75
2024/04/06 01:33:22;;;;;;;2.60;1.48;;;;;;;;;;4927921;29;20175;-75
2024/04/06 01:36:07;;;;;;;4.85;1.77;;;;;;;;;;4931638;29;20074;-75
2024/04/06 01:38:53;;;;;;;2.45;1.67;;;;;;;;;;4920424;29;20090;-75
2024/04/06 01:41:38;;;;;;;4.68;2.03;;;;;;;;;;4920162;29;20440;-75
2024/04/06 01:44:23;;;;;;;6.72;2.35;;;;;;;;;;4905867;29;20024;-75
2024/04/06 01:47:09;;;;;;;3.97;1.90;;;;;;;;;;4917609;29;20593;-75
2024/04/06 01:49:54;;;;;;;3.90;1.88;;;;;;;;;;4939882;28;20028;-75
2024/04/06 01:52:39;;;;;;;8.00;2.03;;;;;;;;;;4917725;29;20078;-76
2024/04/06 01:55:25;;;;;;;2.95;1.60;;;;;;;;;;4922975;29;20039;-76
2024/04/06 01:58:10;;;;;;;4.00;1.90;;;;;;;;;;4929121;29;20039;-76
2024/04/06 02:00:55;;;;;;;8.18;2.05;;;;;;;;;;4921735;29;20103;-76
2024/04/06 02:03:41;;;;;;;3.92;1.80;;;;;;;;;;4938836;29;20391;-76
2024/04/06 02:06:26;;;;;;;3.97;2.00;;;;;;;;;;4929624;28;20127;-76
2024/04/06 02:09:11;;;;;;;3.53;1.50;;;;;;;;;;4937211;29;20042;-75
2024/04/06 02:11:57;;;;;;;4.88;1.70;;;;;;;;;;4925828;28;20126;-76
2024/04/06 02:14:42;;;;;;;2.90;1.55;;;;;;;;;;4928988;29;20040;-76
2024/04/06 02:17:28;;;;;;;5.15;1.80;;;;;;;;;;4939970;29;20048;-74
2024/04/06 02:20:13;;;;;;;3.28;1.77;;;;;;;;;;4923345;29;20110;-76
2024/04/06 02:22:58;;;;;;;3.30;1.98;;;;;;;;;;4921606;29;20108;-75
2024/04/06 02:25:44;;;;;;;4.97;1.98;;;;;;;;;;4921969;29;20529;-75
2024/04/06 02:28:29;;;;;;;3.47;1.80;;;;;;;;;;4921419;29;20664;-75
2024/04/06 02:31:14;;;;;;;3.28;1.83;;;;;;;;;;4937594;28;20063;-77
2024/04/06 02:33:59;;;;;;;8.07;1.88;;;;;;;;;;4928632;29;20030;-76
2024/04/06 02:36:44;;;;;;;3.35;1.98;;;;;;;;;;4922186;29;20109;-76
2024/04/06 02:39:30;;;;;;;3.35;1.58;;;;;;;;;;4920207;29;20024;-75
2024/04/06 02:42:15;;;;;;;6.10;1.95;;;;;;;;;;4921931;29;20036;-75
2024/04/06 02:45:00;;;;;;;7.38;2.00;;;;;;;;;;4935341;28;20028;-75
2024/04/06 02:47:45;;;;;;;3.97;2.20;;;;;;;;;;4936200;29;20542;-75
2024/04/06 02:50:30;;;;;;;5.35;2.67;;;;;;;;;;4934429;29;20023;-76
2024/04/06 02:53:16;;;;;;;4.30;1.67;;;;;;;;;;4922211;28;20028;-75
2024/04/06 02:56:01;;;;;;;3.22;2.05;;;;;;;;;;4928886;28;20106;-75
2024/04/06 02:58:46;;;;;;;5.20;2.10;;;;;;;;;;4939973;29;20046;-75
2024/04/06 03:01:31;;;;;;;2.83;1.88;;;;;;;;;;4928839;29;20031;-75
2024/04/06 03:04:16;;;;;;;2.92;1.98;;;;;;;;;;4925118;29;20040;-75
2024/04/06 03:07:02;;;;;;;3.65;1.42;;;;;;;;;;4924039;29;20043;-75
2024/04/06 03:09:47;;;;;;;8.13;2.20;;;;;;;;;;4924009;29;20488;-76
2024/04/06 03:12:32;;;;;;;8.90;2.10;;;;;;;;;;4924874;29;20051;-78
2024/04/06 03:15:18;;;;;;;3.38;1.73;;;;;;;;;;4931714;29;20186;-76
2024/04/06 03:18:04;;;;;;;2.35;1.55;;;;;;;;;;4923953;29;20043;-77
2024/04/06 03:20:49;;;;;;;4.75;2.13;;;;;;;;;;4992417;28;20046;-77
2024/04/06 03:23:34;;;;;;;4.53;1.58;;;;;;;;;;4924417;29;20036;-75
2024/04/06 03:26:19;;;;;;;4.32;1.83;;;;;;;;;;4923903;29;20060;-75
2024/04/06 03:29:05;;;;;;;5.13;1.90;;;;;;;;;;4923404;29;20020;-75
2024/04/06 03:31:51;;;;;;;4.68;1.67;;;;;;;;;;4923001;28;20039;-75
2024/04/06 03:34:37;;;;;;;6.88;1.88;;;;;;;;;;4922507;29;20051;-75
2024/04/06 03:37:22;;;;;;;9.82;2.60;;;;;;;;;;4922253;29;20043;-75
2024/04/06 03:40:09;;;;;;;6.18;2.30;;;;;;;;;;4922450;29;20039;-75
2024/04/06 03:42:58;;;;;;;5.65;1.52;;;;;;;;;;4993922;28;20031;-75
2024/04/06 03:45:45;;;;;;;3.60;1.50;;;;;;;;;;4918377;29;20040;-75
2024/04/06 03:48:32;;;;;;;5.65;2.15;;;;;;;;;;4921217;29;20130;-75
2024/04/06 03:51:18;;;;;;;2.60;1.50;;;;;;;;;;4921084;29;20474;-75
2024/04/06 03:54:03;;;;;;;2.45;1.70;;;;;;;;;;4920317;29;20442;-75
2024/04/06 03:56:48;;;;;;;3.92;1.73;;;;;;;;;;4994927;28;20102;-75
2024/04/06 03:59:35;;;;;;;4.93;2.50;;;;;;;;;;4916995;29;20028;-75
2024/04/06 04:02:20;;;;;;;5.43;2.65;;;;;;;;;;4923272;29;20031;-76
2024/04/06 04:05:05;;;;;;;4.60;2.20;;;;;;;;;;4922199;28;20036;-75
2024/04/06 04:07:51;;;;;;;5.15;1.98;;;;;;;;;;4923663;29;20078;-76
2024/04/06 04:10:37;;;;;;;3.47;1.50;;;;;;;;;;4921197;29;20040;-75
2024/04/06 04:13:23;;;;;;;3.75;1.73;;;;;;;;;;4920485;29;20030;-76
2024/04/06 04:16:08;;;;;;;3.17;2.00;;;;;;;;;;4918948;28;20634;-76
2024/04/06 04:18:55;;;;;;;2.28;1.65;;;;;;;;;;4917132;29;20475;-76
2024/04/06 04:21:40;;;;;;;5.22;2.20;;;;;;;;;;4924014;29;20046;-77
2024/04/06 04:24:26;;;;;;;3.00;1.88;;;;;;;;;;4921482;28;20040;-77
2024/04/06 04:27:11;;;;;;;2.58;1.73;;;;;;;;;;4934364;28;20098;-77
2024/04/06 04:29:57;;;;;;;4.80;2.45;;;;;;;;;;4922208;29;20059;-76
2024/04/06 04:32:42;;;;;;;5.55;1.95;;;;;;;;;;4932145;28;20027;-77
2024/04/06 04:35:28;;;;;;;5.45;1.98;;;;;;;;;;4918980;29;20042;-77
2024/04/06 04:38:13;;;;;;;6.97;1.90;;;;;;;;;;4921196;28;20065;-77
2024/04/06 04:40:58;;;;;;;5.93;2.00;;;;;;;;;;4921365;29;20652;-76
2024/04/06 04:43:44;;;;;;;4.97;1.90;;;;;;;;;;4918067;29;20128;-76
2024/04/06 04:46:29;;;;;;;5.65;2.20;;;;;;;;;;4922101;28;20039;-76
2024/04/06 04:49:14;;;;;;;5.60;1.88;;;;;;;;;;4923327;28;20107;-76
2024/04/06 04:51:59;;;;;;;2.90;1.70;;;;;;;;;;4902656;29;21360;-76
2024/04/06 04:54:44;;;;;;;3.95;1.60;;;;;;;;;;4919608;29;20035;-76
2024/04/06 04:57:30;;;;;;;5.45;2.00;;;;;;;;;;4917617;29;20475;-76
2024/04/06 05:00:15;;;;;;;2.42;1.77;;;;;;;;;;4915916;29;20027;-76
2024/04/06 05:03:00;;;;;;;3.53;1.77;;;;;;;;;;4920077;29;20059;-75
2024/04/06 05:05:46;;;;;;;5.63;2.00;;;;;;;;;;4914681;29;20043;-76
2024/04/06 05:08:31;;;;;;;3.00;1.75;;;;;;;;;;4921145;29;20039;-76
2024/04/06 05:11:17;;;;;;;3.10;1.80;;;;;;;;;;4919480;29;20114;-76
2024/04/06 05:14:03;;;;;;;4.85;2.25;;;;;;;;;;4913869;29;20032;-76
2024/04/06 05:16:48;;;;;;;2.85;1.83;;;;;;;;;;4917988;29;20154;-76
2024/04/06 05:19:35;;;;;;;4.85;2.08;;;;;;;;;;4919859;29;20031;-76
2024/04/06 05:22:20;;;;;;;3.70;1.60;;;;;;;;;;4920095;29;20020;-76
2024/04/06 05:25:05;;;;;;;4.38;2.03;;;;;;;;;;4928108;29;20772;-74
2024/04/06 05:27:50;;;;;;;8.30;2.42;;;;;;;;;;4913897;29;20082;-75
2024/04/06 05:30:36;;;;;;;6.50;1.98;;;;;;;;;;4916162;29;20036;-75
2024/04/06 05:33:21;;;;;;;5.53;2.05;;;;;;;;;;4913642;29;20031;-75
2024/04/06 05:36:08;;;;;;;4.88;2.88;;;;;;;;;;4923750;29;20094;-75
2024/04/06 05:38:53;;;;;;;6.20;2.75;;;;;;;;;;4915493;29;20086;-77
2024/04/06 05:41:39;;;;;;;6.57;2.60;;;;;;;;;;4917156;29;20299;-78
2024/04/06 05:44:24;;;;;;;4.60;2.20;;;;;;;;;;4927775;29;20051;-75
2024/04/06 05:47:09;;;;;;;5.47;1.88;;;;;;;;;;4917650;29;20600;-75
2024/04/06 05:49:54;;;;;;;5.45;2.42;;;;;;;;;;4921021;29;20829;-75
2024/04/06 05:52:40;;;;;;;10.13;2.22;;;;;;;;;;4918960;29;20021;-77
2024/04/06 05:55:25;;;;;;;4.90;2.00;;;;;;;;;;4911882;29;20043;-76
2024/04/06 05:58:10;;;;;;;6.68;2.22;;;;;;;;;;4917705;29;20078;-76
2024/04/06 06:00:57;;;;;;;4.65;1.98;;;;;;;;;;4922898;29;20036;-76
2024/04/06 06:03:42;;;;;;;3.75;2.20;;;;;;;;;;4920219;29;20390;-77
2024/04/06 06:06:27;;;;;;;3.65;1.88;;;;;;;;;;4914769;29;20047;-76
2024/04/06 06:09:13;;;;;;;6.00;2.47;;;;;;;;;;4930111;29;20047;-76
2024/04/06 06:11:58;;;;;;;5.25;2.30;;;;;;;;;;4924271;28;20038;-76
2024/04/06 06:14:43;;;;;;;7.03;2.58;;;;;;;;;;4916129;29;20020;-76
2024/04/06 06:17:28;;;;;;;7.38;2.63;;;;;;;;;;4921221;29;20499;-76
2024/04/06 06:20:13;;;;;;;2.47;1.88;;;;;;;;;;4922126;29;20023;-76
2024/04/06 06:22:59;;;;;;;3.95;1.60;;;;;;;;;;4916495;29;20498;-75
2024/04/06 06:25:44;;;;;;;5.55;2.13;;;;;;;;;;4925590;29;20476;-75
2024/04/06 06:28:29;;;;;;;5.90;2.60;;;;;;;;;;4916888;29;20027;-76
2024/04/06 06:31:14;;;;;;;4.15;1.58;;;;;;;;;;4925394;29;20020;-75
2024/04/06 06:33:59;;;;;;;3.72;2.00;;;;;;;;;;4911868;29;20024;-75
2024/04/06 06:36:45;;;;;;;4.40;2.40;;;;;;;;;;4938360;29;20032;-75
2024/04/06 06:39:30;;;;;;;5.03;2.30;;;;;;;;;;4918173;29;20069;-75
2024/04/06 06:42:19;;;;;;;4.82;2.40;;;;;;;;;;4941607;28;20024;-75
2024/04/06 06:45:08;;;;;;;7.70;2.97;;;;;;;;;;4947731;28;20084;-76
2024/04/06 06:47:53;;;;;;;3.55;1.80;;;;;;;;;;5011630;28;20486;-75
2024/04/06 06:50:38;;;;;;;5.95;2.28;;;;;;;;;;4936017;29;20036;-75
2024/04/06 06:53:23;;;;;;;4.00;2.20;;;;;;;;;;4920207;29;20609;-75
2024/04/06 06:56:08;;;;;;;7.53;2.63;;;;;;;;;;4924486;29;20023;-75
2024/04/06 06:58:54;;;;;;;2.97;1.63;;;;;;;;;;4921406;29;20050;-73
2024/04/06 07:01:39;;;;;;;4.00;1.80;;;;;;;;;;4923915;29;20089;-75
2024/04/06 07:04:24;;;;;;;4.80;2.10;;;;;;;;;;4927280;29;20094;-75
2024/04/06 07:07:09;;;;;;;3.75;1.67;;;;;;;;;;4927213;29;20079;-75
2024/04/06 07:09:55;;;;;;;4.82;1.70;;;;;;;;;;4927481;29;20053;-75
2024/04/06 07:12:40;;;;;;;1.98;1.40;;;;;;;;;;4919060;29;20032;-75
2024/04/06 07:15:25;;;;;;;5.40;1.88;;;;;;;;;;4922397;29;20106;-74
2024/04/06 07:18:10;;;;;;;3.45;1.63;;;;;;;;;;4931740;29;20101;-74
2024/04/06 07:20:55;;;;;;;6.88;2.35;;;;;;;;;;4923252;29;20020;-74
2024/04/06 07:23:41;;;;;;;2.53;1.60;;;;;;;;;;4920880;29;20127;-76
2024/04/06 07:26:26;;;;;;;2.97;1.80;;;;;;;;;;4927606;29;20102;-75
2024/04/06 07:29:11;;;;;;;4.10;1.40;;;;;;;;;;4920870;29;20031;-77
2024/04/06 07:31:57;;;;;;;3.17;1.48;;;;;;;;;;4917358;29;20043;-76
2024/04/06 07:34:42;;;;;;;3.20;1.40;;;;;;;;;;4925376;29;20030;-75
2024/04/06 07:37:27;;;;;;;5.68;1.60;;;;;;;;;;4918646;29;20074;-74
2024/04/06 07:40:12;;;;;;;5.28;2.20;;;;;;;;;;4944207;29;20028;-75
2024/04/06 07:43:00;;;;;;;3.20;1.70;;;;;;;;;;4927131;29;20126;-74
2024/04/06 07:45:45;;;;;;;6.47;2.30;;;;;;;;;;4915844;29;20406;-74
2024/04/06 07:48:31;;;;;;;3.35;1.77;;;;;;;;;;4933199;28;20039;-75
2024/04/06 07:51:16;;;;;;;3.35;1.70;;;;;;;;;;4925003;29;20448;-75
2024/04/06 07:54:01;;;;;;;3.22;1.60;;;;;;;;;;4918078;29;20038;-75
2024/04/06 07:56:46;;;;;;;2.95;1.88;;;;;;;;;;4932003;29;20162;-75
2024/04/06 07:59:32;;;;;;;4.60;2.05;;;;;;;;;;4989212;28;20040;-75
2024/04/06 08:02:17;;;;;;;3.40;1.42;;;;;;;;;;4913943;29;20098;-76
2024/04/06 08:05:04;;;;;;;3.55;1.88;;;;;;;;;;4919490;28;20068;-73
2024/04/06 08:07:50;;;;;;;4.43;1.52;;;;;;;;;;4922482;28;20562;-74
2024/04/06 08:10:36;;;;;;;6.45;2.08;;;;;;;;;;4917977;29;20023;-76
2024/04/06 08:13:21;;;;;;;7.90;1.90;;;;;;;;;;4918237;29;20023;-76
2024/04/06 08:16:06;;;;;;;3.97;1.38;;;;;;;;;;4925450;28;20090;-76
2024/04/06 08:18:52;;;;;;;2.35;1.20;;;;;;;;;;4918497;29;20036;-77
2024/04/06 08:21:37;;;;;;;6.38;1.58;;;;;;;;;;4924381;29;20031;-77
2024/04/06 08:24:22;;;;;;;3.40;1.60;;;;;;;;;;4917633;29;20023;-77
2024/04/06 08:27:08;;;;;;;2.83;1.60;;;;;;;;;;4923291;29;20023;-78
2024/04/06 08:29:53;;;;;;;3.75;1.65;;;;;;;;;;4926113;29;20031;-77
2024/04/06 08:32:40;;;;;;;2.67;1.45;;;;;;;;;;4918943;29;20380;-78
2024/04/06 08:35:25;;;;;;;6.63;1.90;;;;;;;;;;4915820;29;20550;-86
2024/04/06 08:38:11;;;;;;;6.35;2.28;;;;;;;;;;4921383;29;20032;-85
2024/04/06 08:40:58;;;;;;;6.40;2.33;;;;;;;;;;4919225;28;20027;-83
2024/04/06 08:43:44;;;;;;;25.58;8.38;;;;;;;;;;4924531;29;20439;-85
2024/04/06 08:46:30;;;;;;;9.82;3.60;;;;;;;;;;4931255;28;20040;-80
2024/04/06 08:49:15;;;;;;;12.25;3.80;;;;;;;;;;4917252;29;20032;-81
2024/04/06 08:52:00;;;;;;;10.20;3.30;;;;;;;;;;4916439;28;20040;-79
2024/04/06 08:54:46;;;;;;;8.32;2.40;;;;;;;;;;4923380;28;20119;-79
2024/04/06 08:57:35;;;;;;;7.30;2.42;;;;;;;;;;4914622;29;20089;-79
2024/04/06 09:00:25;;;;;;;6.28;2.15;;;;;;;;;;4913916;29;20048;-79
2024/04/06 09:03:10;;;;;;;4.75;1.65;;;;;;;;;;4925019;29;20032;-80
2024/04/06 09:05:55;;;;;;;3.40;1.73;;;;;;;;;;4920110;29;20664;-78
2024/04/06 09:08:40;;;;;;;3.10;1.73;;;;;;;;;;4915555;29;20023;-77
2024/04/06 09:11:25;;;;;;;4.75;1.60;;;;;;;;;;4913980;29;20023;-77
2024/04/06 09:14:11;;;;;;;3.63;1.33;;;;;;;;;;4911980;29;20056;-76
2024/04/06 09:16:58;;;;;;;3.92;1.35;;;;;;;;;;4915712;29;20547;-78
2024/04/06 09:19:43;;;;;;;3.17;1.60;;;;;;;;;;4918705;29;20036;-80
2024/04/06 09:22:31;;;;;;;1.85;1.30;;;;;;;;;;4919120;28;20554;-80
2024/04/06 09:25:17;;;;;;;5.30;1.30;;;;;;;;;;4918832;29;20115;-81
2024/04/06 09:28:03;;;;;;;5.40;1.85;;;;;;;;;;4911900;29;20020;-80
2024/04/06 09:30:49;;;;;;;3.47;1.88;;;;;;;;;;4917796;29;20034;-82
2024/04/06 09:33:35;;;;;;;5.85;1.65;;;;;;;;;;4918368;29;20428;-81
2024/04/06 09:36:20;;;;;;;3.72;1.83;;;;;;;;;;4920742;29;20023;-81
2024/04/06 09:39:06;;;;;;;4.13;1.63;;;;;;;;;;4919404;29;20038;-82
2024/04/06 09:41:52;;;;;;;2.60;1.58;;;;;;;;;;4919118;29;20042;-81
2024/04/06 09:44:38;;;;;;;4.88;1.85;;;;;;;;;;4922054;28;20491;-79
2024/04/06 09:47:23;;;;;;;7.57;1.80;;;;;;;;;;4918450;29;20043;-82
2024/04/06 09:50:09;;;;;;;6.20;1.67;;;;;;;;;;4934924;28;20051;-78
2024/04/06 09:52:55;;;;;;;2.13;1.25;;;;;;;;;;4919902;29;20487;-78
2024/04/06 09:55:41;;;;;;;4.90;1.30;;;;;;;;;;4918763;29;20115;-79
2024/04/06 09:58:32;;;;;;;2.22;1.30;;;;;;;;;;4922797;29;20072;-79
2024/04/06 10:01:19;;;;;;;3.10;1.58;;;;;;;;;;4915237;28;20036;-80
2024/04/06 10:04:20;;;;;;;4.13;1.95;;;;;;;;;;4918198;29;20111;-79
2024/04/06 10:07:06;;;;;;;3.40;1.55;;;;;;;;;;4906032;29;20041;-79
2024/04/06 10:09:58;;;;;;;4.28;1.30;;;;;;;;;;4924950;29;20035;-81
2024/04/06 10:12:46;;;;;;;3.53;1.40;;;;;;;;;;4916060;29;20066;-81
2024/04/06 10:15:32;;;;;;;3.60;0.95;;;;;;;;;;4921418;29;20139;-81
2024/04/06 10:18:19;;;;;;;1.27;1.00;;;;;;;;;;4922438;29;20028;-82
2024/04/06 10:21:08;;;;;;;3.67;1.08;;;;;;;;;;4919864;29;20052;-82
2024/04/06 10:23:54;;;;;;;3.80;1.50;;;;;;;;;;4930238;29;20098;-83
2024/04/06 10:26:46;;;;;;;4.43;1.27;;;;;;;;;;4918611;29;20024;-82
2024/04/06 10:29:36;;;;;;;3.33;1.38;;;;;;;;;;4921702;29;20028;-80
2024/04/06 10:32:21;;;;;;;3.00;1.38;;;;;;;;;;4900372;29;20115;-83
2024/04/06 10:35:07;;;;;;;6.28;1.90;;;;;;;;;;4906826;29;20331;-79
2024/04/06 10:37:52;;;;;;;3.75;1.35;;;;;;;;;;4909700;29;20398;-79
2024/04/06 10:40:37;;;;;;;2.80;1.17;;;;;;;;;;4926982;28;20137;-80
2024/04/06 10:43:23;;;;;;;4.45;1.30;;;;;;;;;;4909678;29;20110;-80
2024/04/06 10:46:09;;;;;;;5.10;1.70;;;;;;;;;;4914831;29;20701;-79
2024/04/06 10:48:54;;;;;;;8.50;2.17;;;;;;;;;;4928208;28;20043;-77
2024/04/06 10:51:40;;;;;;;3.40;1.10;;;;;;;;;;4933673;29;20059;-77
2024/04/06 10:54:26;;;;;;;14.55;3.25;;;;;;;;;;4913593;29;20043;-77
2024/04/06 10:57:11;;;;;;;22.13;4.47;;;;;;;;;;4912658;28;20058;-80
2024/04/06 10:59:56;;;;;;;10.38;3.40;;;;;;;;;;4914797;29;20046;-79
2024/04/06 11:02:42;;;;;;;5.93;1.58;;;;;;;;;;4917588;29;20109;-79
2024/04/06 11:05:28;;;;;;;11.27;3.40;;;;;;;;;;4923533;29;20035;-78
2024/04/06 11:08:13;;;;;;;13.32;2.83;;;;;;;;;;4918974;29;20036;-82
2024/04/06 11:10:59;;;;;;;5.50;1.83;;;;;;;;;;4916437;29;20143;-83
2024/04/06 11:13:44;;;;;;;7.70;2.33;;;;;;;;;;4931519;28;20051;-81
2024/04/06 11:16:31;;;;;;;5.15;1.60;;;;;;;;;;4920113;29;20052;-82
2024/04/06 11:19:17;;;;;;;4.65;1.52;;;;;;;;;;4921069;28;20052;-82
2024/04/06 11:22:05;;;;;;;8.43;1.88;;;;;;;;;;4917490;29;20020;-82
2024/04/06 11:24:51;;;;;;;2.83;1.60;;;;;;;;;;4928478;29;20395;-82
2024/04/06 11:27:36;;;;;;;2.55;1.55;;;;;;;;;;4921661;28;20486;-83
2024/04/06 11:30:22;;;;;;;2.40;1.20;;;;;;;;;;4909570;29;20703;-83
2024/04/06 11:33:07;;;;;;;5.32;1.42;;;;;;;;;;4922780;29;20584;-83
2024/04/06 11:35:53;;;;;;;4.85;1.33;;;;;;;;;;4925970;29;20039;-81
2024/04/06 11:38:38;;;;;;;2.03;1.23;;;;;;;;;;4921674;29;20514;-82
2024/04/06 11:41:24;;;;;;;2.10;1.10;;;;;;;;;;4914129;29;20035;-82
2024/04/06 11:44:10;;;;;;;2.28;1.23;;;;;;;;;;4919765;29;20738;-80
2024/04/06 11:46:55;;;;;;;3.47;1.38;;;;;;;;;;4924754;29;20861;-82
2024/04/06 11:49:41;;;;;;;1.92;1.58;;;;;;;;;;4919711;29;20067;-82
2024/04/06 11:52:26;;;;;;;1.42;1.20;;;;;;;;;;4920776;29;20024;-81
2024/04/06 11:55:11;;;;;;;2.08;1.10;;;;;;;;;;4921096;29;20039;-83
2024/04/06 11:57:57;;;;;;;3.40;1.10;;;;;;;;;;4919280;29;20036;-82
2024/04/06 12:00:42;;;;;;;1.98;0.98;;;;;;;;;;4928014;29;20036;-80
2024/04/06 12:03:27;;;;;;;1.67;1.10;;;;;;;;;;4917632;29;20039;-81
2024/04/06 12:06:16;;;;;;;9.35;1.30;;;;;;;;;;4917070;29;20181;-81
2024/04/06 12:09:01;;;;;;;1.38;1.10;;;;;;;;;;4915463;29;20038;-81
2024/04/06 12:11:47;;;;;;;4.70;1.08;;;;;;;;;;4927592;29;20032;-79
2024/04/06 12:14:32;;;;;;;2.75;1.23;;;;;;;;;;4916444;29;20032;-81
2024/04/06 12:17:27;;;;;;;1.83;0.98;;;;;;;;;;4917651;29;20067;-82
2024/04/06 12:20:12;;;;;;;2.50;1.33;;;;;;;;;;4910957;29;20028;-80
2024/04/06 12:22:57;;;;;;;1.08;0.90;;;;;;;;;;4919737;29;20539;-83
2024/04/06 12:25:42;;;;;;;1.48;0.90;;;;;;;;;;4924261;29;20073;-80
2024/04/06 12:28:27;;;;;;;1.83;1.00;;;;;;;;;;4918641;29;20097;-80
2024/04/06 12:31:13;;;;;;;4.35;1.30;;;;;;;;;;4925204;29;20024;-81
2024/04/06 12:33:58;;;;;;;2.22;1.30;;;;;;;;;;4916524;29;20056;-81
2024/04/06 12:36:43;;;;;;;1.58;1.13;;;;;;;;;;4914654;29;20438;-80
2024/04/06 12:39:28;;;;;;;1.90;0.95;;;;;;;;;;4918613;29;20038;-81
2024/04/06 12:42:13;;;;;;;3.17;1.05;;;;;;;;;;4912483;29;20036;-81
2024/04/06 12:44:59;;;;;;;2.60;1.25;;;;;;;;;;4915656;29;20050;-82
2024/04/06 12:47:45;;;;;;;4.32;1.58;;;;;;;;;;4921775;29;20046;-81
2024/04/06 12:50:30;;;;;;;3.13;1.40;;;;;;;;;;4914266;29;20148;-81
2024/04/06 12:53:15;;;;;;;2.33;1.10;;;;;;;;;;4919600;29;20031;-81
2024/04/06 12:56:00;;;;;;;3.30;1.10;;;;;;;;;;4914216;29;20028;-81
2024/04/06 12:58:46;;;;;;;1.05;0.85;;;;;;;;;;4912879;29;20574;-81
2024/04/06 13:01:31;;;;;;;1.20;0.98;;;;;;;;;;4913685;29;20028;-83
2024/04/06 13:04:16;;;;;;;2.30;0.90;;;;;;;;;;4917715;29;20264;-82
2024/04/06 13:07:01;;;;;;;4.80;1.10;;;;;;;;;;4922415;29;20028;-83
2024/04/06 13:09:53;;;;;;;5.38;1.52;;;;;;;;;;4917326;28;20035;-82
2024/04/06 13:12:39;;;;;;;1.85;1.17;;;;;;;;;;4918405;29;20059;-80
2024/04/06 13:15:24;;;;;;;3.00;1.10;;;;;;;;;;4922731;29;20376;-79
2024/04/06 13:18:09;;;;;;;1.90;1.20;;;;;;;;;;4913249;29;20441;-80
2024/04/06 13:20:54;;;;;;;6.43;1.20;;;;;;;;;;4914268;29;20048;-82
2024/04/06 13:23:39;;;;;;;2.00;1.30;;;;;;;;;;4919211;29;20047;-81
2024/04/06 13:26:25;;;;;;;3.63;2.13;;;;;;;;;;4921598;29;20098;-82
2024/04/06 13:29:10;;;;;;;5.38;1.30;;;;;;;;;;4929068;29;20180;-84
2024/04/06 13:31:55;;;;;;;2.90;1.50;;;;;;;;;;4919858;29;20042;-82
2024/04/06 13:34:48;;;;;;;2.95;1.30;;;;;;;;;;4927415;29;20071;-81
2024/04/06 13:37:33;;;;;;;6.13;1.20;;;;;;;;;;4990984;28;20023;-78
2024/04/06 13:40:19;;;;;;;2.30;1.00;;;;;;;;;;4922524;29;20028;-79
2024/04/06 13:43:04;;;;;;;1.67;1.08;;;;;;;;;;4932568;29;20028;-79
2024/04/06 13:45:49;;;;;;;2.40;1.25;;;;;;;;;;4920087;28;20028;-76
2024/04/06 13:48:37;;;;;;;6.95;1.25;;;;;;;;;;4923478;29;20035;-76
2024/04/06 13:51:23;;;;;;;1.08;0.98;;;;;;;;;;4918294;29;20063;-76
2024/04/06 13:54:08;;;;;;;1.88;1.00;;;;;;;;;;4922345;29;20581;-76
2024/04/06 13:56:53;;;;;;;2.45;1.30;;;;;;;;;;4915011;29;20062;-75
2024/04/06 13:59:39;;;;;;;2.05;1.10;;;;;;;;;;4912489;29;20119;-75
2024/04/06 14:02:24;;;;;;;4.47;1.25;;;;;;;;;;4921896;29;20028;-76
2024/04/06 14:05:09;;;;;;;2.30;0.90;;;;;;;;;;4918157;29;20055;-75
2024/04/06 14:07:54;;;;;;;2.65;1.25;;;;;;;;;;4911755;29;20024;-75
2024/04/06 14:10:40;;;;;;;2.90;1.25;;;;;;;;;;4912366;29;20589;-75
2024/04/06 14:13:28;;;;;;;3.78;1.10;;;;;;;;;;4918523;29;20123;-76
2024/04/06 14:16:16;;;;;;;2.22;1.10;;;;;;;;;;4923665;29;20071;-77
2024/04/06 14:19:01;;;;;;;4.28;1.20;;;;;;;;;;4918690;29;20463;-76
2024/04/06 14:21:46;;;;;;;3.53;0.98;;;;;;;;;;4915705;29;20106;-76
2024/04/06 14:24:33;;;;;;;2.42;1.15;;;;;;;;;;4919147;29;20114;-78
2024/04/06 14:27:19;;;;;;;2.13;1.17;;;;;;;;;;4914087;29;20024;-77
2024/04/06 14:30:28;;;;;;;1.58;1.10;;;;;;;;;;4922220;29;20081;-77
2024/04/06 14:33:13;;;;;;;1.30;0.90;;;;;;;;;;4914989;29;20115;-75
2024/04/06 14:36:04;;;;;;;4.18;1.27;;;;;;;;;;4924628;28;20031;-75
2024/04/06 14:38:49;;;;;;;4.13;1.20;;;;;;;;;;4920788;29;20081;-77
2024/04/06 14:41:34;;;;;;;1.55;0.90;;;;;;;;;;4931437;29;20019;-77
2024/04/06 14:44:20;;;;;;;1.80;0.85;;;;;;;;;;4915481;29;20089;-75
2024/04/06 14:47:06;;;;;;;2.60;0.95;;;;;;;;;;4916641;29;20031;-75
2024/04/06 14:49:51;;;;;;;2.03;1.10;;;;;;;;;;4913620;29;20111;-75
2024/04/06 14:52:38;;;;;;;2.58;1.38;;;;;;;;;;4928486;29;20024;-75
2024/04/06 14:55:23;;;;;;;2.42;1.17;;;;;;;;;;4914695;29;20077;-75
2024/04/06 14:58:09;;;;;;;1.60;1.17;;;;;;;;;;4917513;29;20027;-76
2024/04/06 15:00:54;;;;;;;2.55;1.17;;;;;;;;;;4915877;28;20419;-75
2024/04/06 15:03:41;;;;;;;3.25;1.10;;;;;;;;;;4915749;29;20020;-75
2024/04/06 15:06:26;;;;;;;2.50;1.33;;;;;;;;;;4913925;29;20044;-75
2024/04/06 15:09:11;;;;;;;12.73;1.55;;;;;;;;;;4912667;29;20027;-74
2024/04/06 15:11:56;;;;;;;1.85;1.10;;;;;;;;;;4913885;29;20032;-75
2024/04/06 15:14:42;;;;;;;7.18;1.30;;;;;;;;;;4922244;29;20048;-75
2024/04/06 15:17:27;;;;;;;3.03;1.10;;;;;;;;;;4920100;28;20438;-75
2024/04/06 15:20:12;;;;;;;3.33;1.17;;;;;;;;;;4915281;29;20023;-75
2024/04/06 15:22:58;;;;;;;3.35;1.50;;;;;;;;;;4928018;28;20023;-76
2024/04/06 15:25:44;;;;;;;1.88;1.00;;;;;;;;;;4923457;29;20850;-75
2024/04/06 15:28:29;;;;;;;1.92;1.15;;;;;;;;;;4930226;29;20360;-75
2024/04/06 15:31:14;;;;;;;1.52;1.15;;;;;;;;;;4916308;29;20028;-76
2024/04/06 15:33:59;;;;;;;2.85;1.00;;;;;;;;;;4916918;29;20106;-76
2024/04/06 15:36:44;;;;;;;3.80;1.15;;;;;;;;;;4915268;29;20023;-77
2024/04/06 15:39:29;;;;;;;1.85;1.08;;;;;;;;;;4914607;29;20024;-76
2024/04/06 15:42:18;;;;;;;2.13;1.13;;;;;;;;;;4911862;29;20055;-76
2024/04/06 15:45:03;;;;;;;2.23;1.20;;;;;;;;;;4922459;29;20042;-76
2024/04/06 15:47:49;;;;;;;2.03;1.20;;;;;;;;;;4915459;29;20067;-76
2024/04/06 15:50:34;;;;;;;2.50;1.10;;;;;;;;;;4915333;29;20046;-76
2024/04/06 15:53:20;;;;;;;3.33;1.10;;;;;;;;;;4916790;29;20056;-76
2024/04/06 15:56:07;;;;;;;5.68;1.27;;;;;;;;;;4919783;29;20028;-77
2024/04/06 15:58:52;;;;;;;2.10;1.13;;;;;;;;;;4917601;29;20038;-76
2024/04/06 16:01:38;;;;;;;2.38;1.20;;;;;;;;;;4926397;29;20038;-76
2024/04/06 16:04:24;;;;;;;2.42;1.30;;;;;;;;;;4920496;29;20682;-76
2024/04/06 16:07:10;;;;;;;2.38;1.70;;;;;;;;;;4913568;29;20028;-75
2024/04/06 16:09:55;;;;;;;9.88;2.67;;;;;;;;;;4921624;29;20043;-76
2024/04/06 16:12:40;;;;;;;4.00;1.63;;;;;;;;;;4915383;29;20163;-75
2024/04/06 16:15:26;;;;;;;9.50;3.70;;;;;;;;;;4919149;29;20055;-75
2024/04/06 16:18:11;;;;;;;2.53;1.65;;;;;;;;;;4918069;29;20127;-76
2024/04/06 16:20:57;;;;;;;1.80;1.20;;;;;;;;;;4913777;29;20028;-76
2024/04/06 16:23:42;;;;;;;13.25;9.70;;;;;;;;;;4919788;29;20058;-77
2024/04/06 16:26:27;;;;;;;16.10;10.90;;;;;;;;;;4917397;29;20071;-76
2024/04/06 16:29:13;;;;;;;10.20;5.07;;;;;;;;;;4912286;29;20115;-77
2024/04/06 16:31:58;;;;;;;6.10;3.67;;;;;;;;;;4913814;29;20031;-77
2024/04/06 16:34:43;;;;;;;28.17;25.20;;;;;;;;;;4920189;29;20036;-78